Terminal Aerodrome Forecast
Issued by NWS

Home | Current Version | Previous Version | Text Only | Print | Product List | Glossary On
Versions: 1 2 3 4 5 6 7 8 9 10 11 12 13 14 15 16 17 18 19 20 21 22 23
182
FTUS43 KIND 222011 AAA
TAFBMG
TAF AMD
KBMG 222011Z 2220/2318 06007KT P6SM OVC100
     FM222200 03008KT P6SM BKN070
     FM230300 01009KT 6SM BR VCSH OVC030
     FM230500 36010KT 5SM BR VCSH OVC015
     FM230800 35012KT 4SM BR VCSH OVC008
     FM231200 34012G20KT 4SM BR OVC008=

USA.gov is the U.S. government's official web portal to all federal, state and local government web resources and services.